Time;durP1;ratioP1;P1;durP2;ratioP2;P2;SDS_P1;SDS_P2;PMS_P1;PMS_P2;Temp;Humidity;BMP_temperature;BMP_pressure;BME280_temperature;BME280_humidity;BME280_pressure;Samples;Min_cycle;Max_cycle;Signal;HPM_P1;HPM_P2
2023/07/09 00:00:17;;;;;;;0.20;0.20;;;22.90;75.50;;;;;;5049122;28;20083;-77
2023/07/09 00:02:43;;;;;;;0.20;0.20;;;22.80;75.70;;;;;;5037504;28;20041;-77
2023/07/09 00:05:14;;;;;;;0.20;0.20;;;22.80;75.90;;;;;;5031558;28;20436;-77
2023/07/09 00:07:41;;;;;;;0.20;0.20;;;22.80;76.20;;;;;;5049633;28;20037;-77
2023/07/09 00:10:20;;;;;;;0.20;0.20;;;22.70;76.30;;;;;;5030554;28;20485;-77
2023/07/09 00:12:47;;;;;;;0.20;0.20;;;22.70;76.50;;;;;;5046914;28;20057;-77
2023/07/09 00:15:18;;;;;;;0.20;0.20;;;22.70;76.60;;;;;;5017781;28;20051;-77
2023/07/09 00:17:44;;;;;;;0.20;0.20;;;22.60;76.70;;;;;;5040886;28;20112;-77
2023/07/09 00:20:14;;;;;;;0.20;0.20;;;22.60;76.90;;;;;;5047784;28;20037;-77
2023/07/09 00:22:41;;;;;;;0.20;0.20;;;22.60;77.20;;;;;;5031073;28;20045;-77
2023/07/09 00:25:13;;;;;;;0.20;0.20;;;22.60;77.40;;;;;;5047786;28;20045;-77
2023/07/09 00:27:44;;;;;;;0.20;0.20;;;22.50;77.10;;;;;;5044233;28;20354;-77
2023/07/09 00:30:15;;;;;;;0.20;0.20;;;22.50;78.00;;;;;;5017311;28;20054;-77
2023/07/09 00:32:43;;;;;;;0.20;0.20;;;22.50;78.30;;;;;;5033367;28;20409;-77
2023/07/09 00:35:09;;;;;;;0.20;0.20;;;22.40;78.40;;;;;;5047094;28;20120;-77
2023/07/09 00:37:35;;;;;;;0.20;0.20;;;22.40;79.20;;;;;;5053509;28;20403;-77
2023/07/09 00:40:01;;;;;;;0.20;0.20;;;22.30;78.90;;;;;;5039977;28;20033;-77
2023/07/09 00:42:28;;;;;;;0.20;0.20;;;22.30;79.20;;;;;;5067644;28;20098;-77
2023/07/09 00:44:54;;;;;;;0.20;0.20;;;22.30;79.40;;;;;;5054441;28;20052;-76
2023/07/09 00:48:00;;;;;;;0.20;0.20;;;22.30;79.60;;;;;;5053017;28;20102;-77
2023/07/09 00:50:47;;;;;;;0.20;0.20;;;22.20;79.70;;;;;;5054355;28;20037;-77
2023/07/09 00:53:29;;;;;;;0.20;0.20;;;22.20;80.00;;;;;;5052520;28;20091;-77
2023/07/09 00:56:09;;;;;;;0.20;0.20;;;22.10;80.20;;;;;;5047811;28;20060;-77
2023/07/09 00:58:38;;;;;;;0.20;0.20;;;22.10;80.50;;;;;;5047726;28;20132;-77
2023/07/09 01:01:09;;;;;;;0.20;0.20;;;22.00;80.80;;;;;;5051666;28;20341;-76
2023/07/09 01:03:40;;;;;;;0.20;0.20;;;21.90;81.00;;;;;;5052375;28;20052;-76
2023/07/09 01:06:06;;;;;;;0.20;0.20;;;21.90;81.30;;;;;;5053780;28;20087;-76
2023/07/09 01:08:34;;;;;;;0.20;0.20;;;21.90;81.60;;;;;;5053044;28;20045;-77
2023/07/09 01:11:00;;;;;;;0.20;0.20;;;21.90;81.90;;;;;;5053798;28;20053;-77
2023/07/09 01:13:28;;;;;;;0.20;0.20;;;21.90;82.20;;;;;;5050475;28;20603;-77
2023/07/09 01:15:55;;;;;;;0.20;0.20;;;21.80;82.30;;;;;;5054659;28;20123;-76
2023/07/09 01:18:21;;;;;;;0.20;0.20;;;21.80;82.80;;;;;;5050775;28;20045;-77
2023/07/09 01:20:47;;;;;;;0.20;0.20;;;21.80;83.10;;;;;;5052918;28;20043;-77
2023/07/09 01:23:14;;;;;;;0.20;0.20;;;21.70;83.30;;;;;;5053225;28;20064;-77
2023/07/09 01:25:52;;;;;;;0.20;0.20;;;21.80;83.50;;;;;;5052559;28;20056;-77
2023/07/09 01:28:20;;;;;;;0.10;0.10;;;21.70;83.60;;;;;;5049141;28;20045;-77
2023/07/09 01:30:49;;;;;;;0.20;0.20;;;21.70;83.90;;;;;;5052638;28;20056;-77
2023/07/09 01:33:14;;;;;;;0.20;0.20;;;21.60;84.10;;;;;;5053096;28;20053;-77
2023/07/09 01:35:41;;;;;;;0.20;0.20;;;21.60;84.40;;;;;;5054641;28;20060;-77
2023/07/09 01:38:08;;;;;;;0.20;0.20;;;;;;;;;;5032242;28;20135;-77
2023/07/09 01:40:35;;;;;;;0.20;0.20;;;21.50;84.40;;;;;;5036668;28;20171;-77
2023/07/09 01:43:06;;;;;;;0.13;0.13;;;21.50;85.10;;;;;;5049993;28;20068;-77
2023/07/09 01:45:33;;;;;;;0.20;0.20;;;21.50;85.50;;;;;;5034865;28;20068;-77
2023/07/09 01:47:59;;;;;;;0.20;0.20;;;21.40;85.70;;;;;;5029227;28;20045;-77
2023/07/09 01:50:26;;;;;;;0.15;0.15;;;21.40;86.00;;;;;;5033245;28;20037;-77
2023/07/09 01:52:53;;;;;;;0.20;0.20;;;21.30;86.30;;;;;;5051292;28;20063;-77
2023/07/09 01:55:19;;;;;;;0.20;0.20;;;21.30;86.70;;;;;;5034280;28;20381;-77
2023/07/09 01:57:45;;;;;;;0.20;0.20;;;21.30;87.10;;;;;;5031543;28;20048;-76
2023/07/09 02:00:15;;;;;;;0.10;0.10;;;21.30;87.30;;;;;;5032885;28;20079;-76
2023/07/09 02:02:43;;;;;;;0.20;0.20;;;21.30;87.50;;;;;;5028000;28;20048;-77
2023/07/09 02:05:09;;;;;;;0.20;0.20;;;21.30;87.80;;;;;;5033807;28;20107;-77
2023/07/09 02:07:35;;;;;;;0.10;0.10;;;21.30;87.90;;;;;;5033576;28;20124;-77
2023/07/09 02:10:01;;;;;;;0.20;0.20;;;21.30;88.00;;;;;;5051084;28;20124;-77
2023/07/09 02:12:26;;;;;;;0.20;0.20;;;21.20;88.20;;;;;;5032341;28;20515;-77
2023/07/09 02:14:52;;;;;;;0.20;0.20;;;21.20;88.30;;;;;;5022318;28;20048;-77
2023/07/09 02:17:18;;;;;;;0.20;0.20;;;21.20;88.50;;;;;;5023980;28;20041;-77
2023/07/09 02:19:44;;;;;;;0.20;0.20;;;21.20;88.80;;;;;;5032173;28;20333;-77
2023/07/09 02:22:11;;;;;;;0.20;0.20;;;21.10;89.20;;;;;;5031755;28;20092;-77
2023/07/09 02:24:36;;;;;;;0.20;0.20;;;21.10;89.50;;;;;;5023985;28;20050;-77
2023/07/09 02:27:06;;;;;;;0.10;0.10;;;21.10;89.80;;;;;;5031360;28;20122;-77
2023/07/09 02:29:33;;;;;;;0.20;0.20;;;21.10;90.00;;;;;;5031095;28;20029;-77
2023/07/09 02:32:00;;;;;;;0.20;0.20;;;21.00;90.00;;;;;;5038173;28;20099;-77
2023/07/09 02:34:27;;;;;;;0.20;0.20;;;21.00;90.10;;;;;;5049226;28;20056;-77
2023/07/09 02:36:55;;;;;;;0.20;0.20;;;21.00;90.20;;;;;;5050004;28;20037;-77
2023/07/09 02:39:22;;;;;;;0.20;0.20;;;20.90;90.30;;;;;;5050646;28;20116;-77
2023/07/09 02:41:48;;;;;;;0.20;0.20;;;20.90;90.60;;;;;;5050155;28;20041;-77
2023/07/09 02:44:14;;;;;;;0.20;0.20;;;20.90;90.50;;;;;;5048886;28;20037;-77
2023/07/09 02:46:40;;;;;;;0.10;0.10;;;20.90;90.60;;;;;;5048861;28;20084;-77
2023/07/09 02:49:09;;;;;;;0.20;0.20;;;20.90;90.70;;;;;;5048872;28;20502;-76
2023/07/09 02:51:34;;;;;;;0.20;0.20;;;20.90;90.70;;;;;;5046266;28;20067;-77
2023/07/09 02:54:01;;;;;;;0.13;0.13;;;20.80;90.80;;;;;;5048130;28;20049;-77
2023/07/09 02:56:28;;;;;;;0.20;0.20;;;20.80;90.90;;;;;;5049224;28;20443;-77
2023/07/09 02:58:54;;;;;;;0.10;0.10;;;20.80;91.00;;;;;;5048105;28;20041;-77
2023/07/09 03:01:24;;;;;;;0.20;0.20;;;20.80;91.10;;;;;;5048175;28;20148;-77
2023/07/09 03:03:59;;;;;;;0.13;0.13;;;20.80;91.10;;;;;;5046685;28;20049;-77
2023/07/09 03:06:26;;;;;;;0.20;0.20;;;20.80;91.30;;;;;;5052683;28;20094;-77
2023/07/09 03:08:52;;;;;;;0.20;0.20;;;20.80;91.40;;;;;;5051185;28;20492;-77
2023/07/09 03:11:19;;;;;;;0.20;0.20;;;20.70;91.60;;;;;;5049930;28;20052;-77
2023/07/09 03:13:44;;;;;;;0.20;0.20;;;20.70;91.40;;;;;;5048137;28;20037;-77
2023/07/09 03:16:10;;;;;;;0.20;0.20;;;20.70;91.40;;;;;;5048690;28;20116;-77
2023/07/09 03:18:36;;;;;;;0.10;0.10;;;20.70;91.50;;;;;;5049458;28;20040;-77
2023/07/09 03:21:02;;;;;;;0.20;0.20;;;20.70;91.60;;;;;;5048112;28;20052;-77
2023/07/09 03:23:28;;;;;;;0.20;0.20;;;20.70;91.60;;;;;;5049512;28;20060;-77
2023/07/09 03:25:55;;;;;;;0.20;0.20;;;20.70;91.70;;;;;;5050297;28;20040;-77
2023/07/09 03:28:22;;;;;;;0.10;0.10;;;20.70;91.80;;;;;;5048111;28;20460;-77
2023/07/09 03:30:49;;;;;;;0.20;0.20;;;20.70;91.90;;;;;;5047112;28;20496;-77
2023/07/09 03:33:16;;;;;;;0.20;0.20;;;20.70;91.90;;;;;;5061161;28;20450;-77
2023/07/09 03:35:42;;;;;;;0.20;0.20;;;20.70;91.90;;;;;;5050432;28;20045;-76
2023/07/09 03:38:10;;;;;;;0.10;0.10;;;20.70;91.90;;;;;;5047270;28;20123;-77
2023/07/09 03:40:38;;;;;;;0.20;0.20;;;20.70;92.00;;;;;;5048955;28;20087;-77
2023/07/09 03:43:05;;;;;;;0.17;0.17;;;20.70;92.00;;;;;;5044066;28;20045;-76
2023/07/09 03:45:31;;;;;;;0.20;0.20;;;20.70;92.10;;;;;;5051820;28;20041;-77
2023/07/09 03:47:57;;;;;;;0.20;0.20;;;20.70;92.10;;;;;;5048884;28;20037;-77
2023/07/09 03:50:22;;;;;;;0.10;0.10;;;20.70;92.10;;;;;;5047769;28;20079;-77
2023/07/09 03:52:48;;;;;;;0.20;0.20;;;20.60;92.20;;;;;;5047064;28;20408;-76
2023/07/09 03:55:14;;;;;;;0.20;0.20;;;20.60;92.20;;;;;;5048294;28;20378;-76
2023/07/09 03:57:40;;;;;;;0.20;0.20;;;20.70;92.30;;;;;;5047773;28;20080;-77
2023/07/09 04:00:10;;;;;;;0.10;0.10;;;20.60;92.70;;;;;;5047850;28;20064;-77
2023/07/09 04:02:39;;;;;;;0.20;0.20;;;20.60;92.50;;;;;;5049182;28;20135;-77
2023/07/09 04:05:08;;;;;;;0.20;0.20;;;20.70;92.60;;;;;;5042879;28;20132;-76
2023/07/09 04:07:34;;;;;;;0.15;0.15;;;20.60;92.60;;;;;;5045281;28;20119;-77
2023/07/09 04:10:01;;;;;;;0.20;0.20;;;20.60;92.60;;;;;;5046772;28;20064;-77
2023/07/09 04:12:27;;;;;;;0.20;0.20;;;20.70;92.70;;;;;;5042761;28;20049;-77
2023/07/09 04:14:53;;;;;;;0.10;0.10;;;20.60;92.60;;;;;;5046513;28;20071;-76
2023/07/09 04:17:19;;;;;;;0.20;0.20;;;20.70;92.70;;;;;;5048128;28;20103;-77
2023/07/09 04:19:44;;;;;;;0.20;0.20;;;20.70;92.80;;;;;;5045857;28;20053;-77
2023/07/09 04:22:13;;;;;;;0.20;0.20;;;20.70;92.90;;;;;;5055024;28;20813;-77
2023/07/09 04:24:38;;;;;;;0.15;0.15;;;20.70;93.00;;;;;;5047636;28;20128;-76
2023/07/09 04:27:04;;;;;;;0.20;0.20;;;20.70;93.00;;;;;;5044626;28;20568;-76
2023/07/09 04:29:33;;;;;;;0.10;0.10;;;20.70;93.00;;;;;;5047030;28;20048;-76
2023/07/09 04:31:59;;;;;;;0.10;0.10;;;20.70;93.00;;;;;;5039572;28;20056;-76
2023/07/09 04:34:25;;;;;;;1.48;0.73;;;20.80;93.10;;;;;;5028024;28;20515;-83
2023/07/09 04:36:51;;;;;;;0.20;0.20;;;20.80;93.20;;;;;;5046976;28;20827;-83
2023/07/09 04:39:16;;;;;;;0.20;0.20;;;20.80;93.20;;;;;;5047991;28;20045;-84
2023/07/09 04:41:43;;;;;;;0.20;0.20;;;20.80;93.20;;;;;;5040804;28;20116;-83
2023/07/09 04:44:08;;;;;;;0.20;0.20;;;20.80;93.20;;;;;;5027139;28;20128;-82
2023/07/09 04:46:34;;;;;;;0.17;0.17;;;20.80;93.30;;;;;;5054306;28;20084;-85
2023/07/09 04:49:00;;;;;;;0.20;0.20;;;20.90;93.40;;;;;;5060658;28;20033;-84
2023/07/09 04:51:26;;;;;;;0.20;0.20;;;20.90;93.40;;;;;;5057028;28;20080;-82
2023/07/09 04:53:52;;;;;;;0.20;0.20;;;20.90;93.40;;;;;;5055110;28;20040;-82
2023/07/09 04:56:18;;;;;;;0.20;0.20;;;21.00;93.50;;;;;;5052117;28;20041;-83
2023/07/09 04:58:44;;;;;;;0.10;0.10;;;20.90;93.50;;;;;;5034276;28;20040;-83
2023/07/09 05:01:09;;;;;;;0.10;0.10;;;21.00;93.60;;;;;;5052294;28;20044;-83
2023/07/09 05:03:35;;;;;;;0.20;0.20;;;21.00;93.60;;;;;;5048651;28;20051;-82
2023/07/09 05:06:01;;;;;;;0.20;0.20;;;21.10;93.70;;;;;;5027555;28;20692;-83
2023/07/09 05:08:27;;;;;;;0.10;0.10;;;21.10;93.70;;;;;;5029156;28;20072;-83
2023/07/09 05:10:53;;;;;;;0.10;0.10;;;21.10;93.70;;;;;;5030451;28;20057;-84
2023/07/09 05:13:19;;;;;;;0.20;0.20;;;21.20;93.70;;;;;;5047312;28;20036;-84
2023/07/09 05:15:46;;;;;;;0.20;0.20;;;21.20;93.70;;;;;;5047572;28;20127;-84
2023/07/09 05:18:13;;;;;;;0.20;0.20;;;21.30;93.70;;;;;;5036661;28;20037;-84
2023/07/09 05:20:40;;;;;;;0.20;0.20;;;21.30;93.50;;;;;;5047490;28;20131;-83
2023/07/09 05:23:05;;;;;;;0.20;0.20;;;21.30;93.50;;;;;;5048181;28;20052;-83
2023/07/09 05:25:31;;;;;;;0.20;0.20;;;21.40;93.50;;;;;;5029159;28;20102;-82
2023/07/09 05:27:57;;;;;;;0.17;0.17;;;21.40;93.40;;;;;;5041984;28;20114;-81
2023/07/09 05:30:23;;;;;;;0.20;0.20;;;21.40;93.30;;;;;;5033879;28;20033;-83
2023/07/09 05:32:49;;;;;;;0.20;0.20;;;21.50;93.20;;;;;;5047175;28;20053;-83
2023/07/09 05:35:14;;;;;;;0.20;0.20;;;21.50;93.00;;;;;;5030674;28;20308;-83
2023/07/09 05:37:40;;;;;;;0.10;0.10;;;21.50;92.90;;;;;;5058833;28;20033;-84
2023/07/09 05:40:07;;;;;;;0.20;0.20;;;21.60;92.90;;;;;;5031385;28;20123;-83
2023/07/09 05:42:34;;;;;;;0.13;0.13;;;21.60;92.90;;;;;;5031756;28;20101;-84
2023/07/09 05:44:59;;;;;;;0.10;0.10;;;21.60;92.90;;;;;;5024402;28;20125;-82
2023/07/09 05:47:26;;;;;;;0.20;0.20;;;21.70;93.00;;;;;;5033279;28;20140;-84
2023/07/09 05:49:52;;;;;;;0.20;0.20;;;21.70;92.90;;;;;;5051016;28;20087;-83
2023/07/09 05:52:19;;;;;;;0.10;0.10;;;21.80;93.00;;;;;;5032028;28;20048;-83
2023/07/09 05:54:45;;;;;;;0.20;0.20;;;21.80;92.90;;;;;;5050153;28;20039;-82
2023/07/09 05:57:11;;;;;;;0.20;0.20;;;21.90;93.00;;;;;;5048677;28;20499;-81
2023/07/09 05:59:37;;;;;;;0.20;0.20;;;22.00;93.00;;;;;;5029556;28;20044;-81
2023/07/09 06:02:03;;;;;;;0.20;0.20;;;22.00;93.00;;;;;;5051493;28;20040;-83
2023/07/09 06:04:30;;;;;;;0.20;0.20;;;22.10;93.20;;;;;;5037071;28;20068;-81
2023/07/09 06:06:57;;;;;;;0.20;0.20;;;22.10;93.10;;;;;;5035945;28;20405;-79
2023/07/09 06:09:23;;;;;;;0.17;0.17;;;22.20;93.10;;;;;;5051011;28;20041;-83
2023/07/09 06:11:49;;;;;;;0.10;0.10;;;22.20;93.10;;;;;;5032105;28;20036;-83
2023/07/09 06:14:16;;;;;;;0.20;0.20;;;22.30;93.10;;;;;;5054317;28;20052;-84
2023/07/09 06:16:43;;;;;;;0.20;0.20;;;22.30;93.10;;;;;;5026954;28;20044;-83
2023/07/09 06:19:09;;;;;;;0.20;0.20;;;22.30;93.10;;;;;;5046750;28;20086;-85
2023/07/09 06:21:35;;;;;;;0.20;0.20;;;22.40;93.20;;;;;;5031290;28;20041;-83
2023/07/09 06:24:01;;;;;;;0.20;0.20;;;22.40;93.10;;;;;;5048414;28;20037;-83
2023/07/09 06:26:27;;;;;;;0.20;0.20;;;22.40;93.10;;;;;;5030458;28;20400;-83
2023/07/09 06:28:52;;;;;;;0.20;0.20;;;22.40;93.10;;;;;;5046962;28;20132;-83
2023/07/09 06:31:20;;;;;;;0.20;0.20;;;22.50;93.20;;;;;;5028976;28;20045;-83
2023/07/09 06:33:47;;;;;;;0.20;0.20;;;22.50;93.30;;;;;;5030437;28;20090;-83
2023/07/09 06:36:13;;;;;;;0.20;0.20;;;22.50;93.30;;;;;;5051915;28;20124;-82
2023/07/09 06:38:39;;;;;;;0.20;0.20;;;22.60;93.40;;;;;;5029864;28;20515;-84
2023/07/09 06:41:05;;;;;;;0.20;0.20;;;22.70;93.50;;;;;;5030246;28;20086;-83
2023/07/09 06:43:31;;;;;;;0.20;0.20;;;22.70;93.60;;;;;;5044651;28;20049;-83
2023/07/09 06:45:59;;;;;;;0.20;0.20;;;22.80;93.50;;;;;;5027462;28;20053;-84
2023/07/09 06:48:28;;;;;;;0.20;0.20;;;22.90;93.60;;;;;;5044071;28;20040;-82
2023/07/09 06:50:55;;;;;;;0.20;0.20;;;23.00;93.60;;;;;;5050867;28;20041;-83
2023/07/09 06:53:22;;;;;;;0.20;0.20;;;23.10;93.60;;;;;;5046475;28;20052;-83
2023/07/09 06:55:48;;;;;;;0.20;0.20;;;23.10;93.60;;;;;;5047222;28;20060;-85
2023/07/09 06:58:16;;;;;;;0.20;0.20;;;23.20;93.50;;;;;;5030161;28;20052;-83
2023/07/09 07:00:42;;;;;;;0.20;0.20;;;23.30;93.50;;;;;;5024406;28;20044;-82
2023/07/09 07:03:09;;;;;;;0.30;0.30;;;23.40;93.50;;;;;;5027941;28;20037;-82
2023/07/09 07:05:35;;;;;;;0.20;0.20;;;23.50;93.50;;;;;;5031636;28;20048;-83
2023/07/09 07:08:02;;;;;;;0.20;0.20;;;23.50;93.50;;;;;;5047021;28;20060;-84
2023/07/09 07:10:29;;;;;;;0.20;0.20;;;23.60;93.50;;;;;;5029711;28;20048;-77
2023/07/09 07:12:56;;;;;;;0.20;0.20;;;23.70;93.40;;;;;;5027422;28;20049;-77
2023/07/09 07:15:22;;;;;;;0.20;0.20;;;23.70;93.70;;;;;;5024377;28;20656;-79
2023/07/09 07:17:48;;;;;;;0.20;0.20;;;23.80;93.70;;;;;;5029122;28;20048;-78
2023/07/09 07:20:15;;;;;;;0.20;0.20;;;23.90;93.80;;;;;;5045778;28;20528;-78
2023/07/09 07:22:41;;;;;;;0.30;0.30;;;24.00;93.70;;;;;;5027570;28;20509;-77
2023/07/09 07:25:08;;;;;;;0.20;0.20;;;24.00;93.70;;;;;;5046818;28;20037;-78
2023/07/09 07:27:34;;;;;;;0.20;0.20;;;24.20;93.80;;;;;;5026698;28;20044;-78
2023/07/09 07:30:01;;;;;;;0.10;0.10;;;24.30;93.70;;;;;;5044142;28;21382;-77
2023/07/09 07:32:26;;;;;;;0.20;0.20;;;24.40;93.80;;;;;;5034685;28;20056;-77
2023/07/09 07:34:54;;;;;;;0.20;0.20;;;24.50;93.70;;;;;;5047176;28;20071;-77
2023/07/09 07:37:20;;;;;;;0.20;0.20;;;24.60;93.70;;;;;;5045118;28;20115;-75
2023/07/09 07:39:47;;;;;;;0.20;0.20;;;24.70;93.70;;;;;;5045259;28;20047;-78
2023/07/09 07:42:13;;;;;;;0.20;0.20;;;24.80;93.00;;;;;;5039919;28;20591;-78
2023/07/09 07:44:39;;;;;;;0.20;0.20;;;24.90;92.80;;;;;;5038670;28;20127;-77
2023/07/09 07:47:05;;;;;;;0.20;0.20;;;25.00;92.70;;;;;;5045782;28;20076;-77
2023/07/09 07:49:31;;;;;;;0.40;0.40;;;25.10;92.50;;;;;;5045951;28;20077;-77
2023/07/09 07:51:56;;;;;;;0.20;0.20;;;25.20;92.40;;;;;;5058989;28;20190;-77
2023/07/09 07:54:22;;;;;;;0.25;0.25;;;25.20;92.40;;;;;;5045579;28;20429;-77
2023/07/09 07:56:48;;;;;;;0.20;0.20;;;25.20;92.20;;;;;;5033388;28;20041;-77
2023/07/09 07:59:14;;;;;;;0.20;0.20;;;25.30;92.20;;;;;;5042450;28;20172;-77
2023/07/09 08:01:40;;;;;;;0.20;0.20;;;25.30;92.20;;;;;;5046678;28;20497;-77
2023/07/09 08:04:06;;;;;;;0.20;0.20;;;25.40;92.20;;;;;;5045662;28;20048;-78
2023/07/09 08:06:31;;;;;;;0.20;0.20;;;25.50;92.20;;;;;;5040408;28;20037;-78
2023/07/09 08:08:58;;;;;;;0.20;0.20;;;25.50;92.20;;;;;;5036320;28;20099;-78
2023/07/09 08:11:24;;;;;;;0.20;0.20;;;25.60;91.80;;;;;;5040966;28;20078;-78
2023/07/09 08:13:50;;;;;;;0.20;0.20;;;25.80;91.80;;;;;;5045127;28;20423;-78
2023/07/09 08:16:17;;;;;;;0.20;0.20;;;25.90;91.80;;;;;;5048456;28;20127;-79
2023/07/09 08:18:42;;;;;;;0.20;0.20;;;26.00;92.10;;;;;;5047363;28;20499;-79
2023/07/09 08:21:09;;;;;;;0.30;0.30;;;26.10;91.90;;;;;;5053536;28;20041;-78
2023/07/09 08:23:35;;;;;;;0.25;0.25;;;26.20;91.80;;;;;;5047112;28;20041;-78
2023/07/09 08:26:02;;;;;;;0.20;0.20;;;26.30;91.70;;;;;;5045420;28;20382;-78
2023/07/09 08:28:29;;;;;;;0.20;0.20;;;26.40;91.90;;;;;;5047956;28;20048;-78
2023/07/09 08:30:56;;;;;;;0.20;0.20;;;26.50;91.80;;;;;;5048354;28;20130;-78
2023/07/09 08:33:22;;;;;;;0.20;0.20;;;26.60;91.80;;;;;;5045867;28;20167;-78
2023/07/09 08:35:52;;;;;;;0.20;0.20;;;26.70;92.00;;;;;;5050250;28;20037;-77
2023/07/09 08:38:18;;;;;;;0.20;0.20;;;26.70;91.50;;;;;;5048265;28;20049;-77
2023/07/09 08:41:08;;;;;;;0.28;0.28;;;26.80;91.40;;;;;;5047304;28;20045;-79
2023/07/09 08:43:44;;;;;;;0.20;0.20;;;26.80;91.20;;;;;;5046877;28;20068;-78
2023/07/09 08:46:17;;;;;;;0.20;0.20;;;26.80;91.10;;;;;;5048151;28;20400;-77
2023/07/09 08:48:47;;;;;;;0.20;0.20;;;26.90;91.20;;;;;;5044759;28;20045;-80
2023/07/09 08:51:38;;;;;;;0.20;0.20;;;27.00;91.40;;;;;;5040162;28;20052;-82
2023/07/09 08:54:14;;;;;;;0.20;0.20;;;27.00;91.20;;;;;;5042605;28;20088;-82
2023/07/09 08:56:41;;;;;;;0.20;0.20;;;27.10;91.20;;;;;;5044857;28;20057;-81
2023/07/09 08:59:12;;;;;;;0.20;0.20;;;27.20;91.20;;;;;;5050017;28;20551;-81
2023/07/09 09:01:46;;;;;;;0.20;0.20;;;27.20;91.10;;;;;;5051864;28;20466;-81
2023/07/09 09:04:29;;;;;;;0.20;0.20;;;27.30;91.30;;;;;;5050384;28;20048;-82
2023/07/09 09:07:26;;;;;;;0.20;0.20;;;27.50;91.30;;;;;;5042461;28;20048;-81
2023/07/09 09:10:01;;;;;;;0.20;0.20;;;27.50;91.40;;;;;;5020468;28;20500;-81
2023/07/09 09:12:40;;;;;;;0.20;0.20;;;27.60;91.40;;;;;;5051168;28;20088;-82
2023/07/09 09:15:18;;;;;;;0.20;0.20;;;27.60;91.20;;;;;;5050824;28;20052;-80
2023/07/09 09:17:44;;;;;;;0.20;0.20;;;27.70;91.30;;;;;;5048192;28;20071;-81
2023/07/09 09:20:17;;;;;;;0.20;0.20;;;27.80;91.40;;;;;;5050677;28;20049;-82
2023/07/09 09:23:09;;;;;;;0.20;0.20;;;27.80;91.20;;;;;;5049162;28;20139;-82
2023/07/09 09:25:40;;;;;;;0.20;0.20;;;27.90;91.00;;;;;;5050551;28;20561;-80
2023/07/09 09:28:06;;;;;;;;;;;28.00;91.20;;;;;;5045654;28;20072;-80
2023/07/09 09:30:31;;;;;;;0.20;0.20;;;28.00;91.20;;;;;;5051073;28;19956;-81
2023/07/09 09:33:07;;;;;;;0.20;0.20;;;28.00;91.30;;;;;;5047114;28;20521;-80
2023/07/09 09:35:39;;;;;;;0.20;0.20;;;28.10;91.40;;;;;;5048738;28;20169;-79
2023/07/09 09:38:15;;;;;;;0.20;0.20;;;28.10;91.10;;;;;;5049127;28;20060;-80
2023/07/09 09:40:41;;;;;;;0.20;0.20;;;28.20;91.40;;;;;;5041424;28;20067;-80
2023/07/09 09:43:20;;;;;;;0.20;0.20;;;28.20;91.40;;;;;;5041613;28;20127;-80
2023/07/09 09:45:48;;;;;;;0.25;0.25;;;28.20;91.50;;;;;;5045468;28;20263;-80
2023/07/09 09:48:26;;;;;;;0.20;0.20;;;28.30;91.30;;;;;;5044777;28;20056;-81
2023/07/09 09:50:52;;;;;;;0.40;0.40;;;28.30;91.20;;;;;;5044978;28;20041;-81
2023/07/09 09:53:22;;;;;;;0.20;0.20;;;28.30;91.20;;;;;;5045580;28;20057;-80
2023/07/09 09:55:49;;;;;;;0.38;0.38;;;28.40;91.20;;;;;;5042549;28;20046;-80
2023/07/09 09:58:17;;;;;;;0.20;0.20;;;28.40;91.20;;;;;;5056568;28;20390;-81
2023/07/09 10:00:54;;;;;;;0.30;0.30;;;28.40;91.30;;;;;;5043386;28;20408;-81
2023/07/09 10:03:21;;;;;;;0.20;0.20;;;28.50;91.40;;;;;;5046094;28;20492;-81
2023/07/09 10:05:57;;;;;;;0.20;0.20;;;28.50;91.30;;;;;;5041863;28;20042;-80
2023/07/09 10:08:51;;;;;;;0.20;0.20;;;28.50;91.20;;;;;;5040510;28;20041;-80
2023/07/09 10:11:26;;;;;;;0.20;0.20;;;28.60;91.20;;;;;;5040297;28;20057;-81
2023/07/09 10:13:59;;;;;;;0.20;0.20;;;28.60;91.20;;;;;;5044649;28;20068;-80
2023/07/09 10:16:44;;;;;;;0.20;0.20;;;28.70;91.40;;;;;;5043470;28;20051;-80
2023/07/09 10:19:29;;;;;;;0.20;0.20;;;28.70;91.20;;;;;;5049266;28;20037;-80
2023/07/09 10:22:18;;;;;;;0.20;0.20;;;28.70;91.00;;;;;;5043329;28;20696;-80
2023/07/09 10:25:06;;;;;;;0.20;0.20;;;28.80;91.10;;;;;;5041823;28;20456;-80
2023/07/09 10:27:38;;;;;;;0.20;0.20;;;28.70;91.10;;;;;;5043776;28;20041;-81
2023/07/09 10:30:19;;;;;;;0.20;0.20;;;28.80;91.20;;;;;;5043119;28;20045;-80
2023/07/09 10:33:13;;;;;;;0.20;0.20;;;28.90;91.20;;;;;;5044385;28;20113;-80
2023/07/09 10:36:11;;;;;;;1.60;0.73;;;28.90;91.00;;;;;;5059092;28;20519;-81
2023/07/09 10:38:48;;;;;;;0.20;0.20;;;29.00;91.00;;;;;;5041157;28;20041;-80
2023/07/09 10:41:16;;;;;;;0.20;0.20;;;29.00;90.90;;;;;;5059916;28;20088;-78
2023/07/09 10:43:57;;;;;;;0.20;0.20;;;29.10;90.80;;;;;;5046391;28;20037;-77
2023/07/09 10:46:26;;;;;;;0.20;0.20;;;29.20;90.90;;;;;;5042265;28;20055;-77
2023/07/09 10:48:54;;;;;;;0.20;0.20;;;29.20;90.70;;;;;;5045395;28;20037;-78
2023/07/09 10:51:28;;;;;;;0.20;0.20;;;29.20;90.70;;;;;;5048869;28;20538;-77
2023/07/09 10:54:15;;;;;;;0.20;0.20;;;29.30;90.70;;;;;;5045208;28;20037;-77
2023/07/09 10:56:42;;;;;;;0.28;0.28;;;29.40;90.50;;;;;;5047984;28;20045;-77
2023/07/09 10:59:24;;;;;;;0.20;0.20;;;29.40;90.70;;;;;;5047486;28;20435;-78
2023/07/09 11:01:55;;;;;;;0.20;0.20;;;29.40;90.50;;;;;;5047535;28;20048;-78
2023/07/09 11:04:27;;;;;;;0.20;0.20;;;29.50;90.60;;;;;;5045115;28;20072;-77
2023/07/09 11:06:54;;;;;;;0.20;0.20;;;29.50;90.50;;;;;;5055529;28;20051;-78
2023/07/09 11:09:31;;;;;;;0.20;0.20;;;29.60;90.50;;;;;;5049337;28;20144;-77
2023/07/09 11:12:03;;;;;;;0.20;0.20;;;29.60;90.20;;;;;;5061499;28;20071;-77
2023/07/09 11:14:51;;;;;;;0.30;0.30;;;29.70;89.60;;;;;;5043295;28;20073;-78
2023/07/09 11:17:20;;;;;;;0.20;0.20;;;29.70;89.70;;;;;;5046567;28;20072;-77
2023/07/09 11:19:48;;;;;;;0.20;0.20;;;29.70;89.60;;;;;;5049967;28;20408;-79
2023/07/09 11:22:13;;;;;;;0.20;0.20;;;29.80;88.70;;;;;;5045878;28;20044;-76
2023/07/09 11:25:12;;;;;;;0.20;0.20;;;29.80;88.90;;;;;;5043625;28;20099;-77
2023/07/09 11:28:03;;;;;;;0.20;0.20;;;29.90;88.60;;;;;;5040559;28;20124;-79
2023/07/09 11:30:29;;;;;;;0.20;0.20;;;30.00;88.40;;;;;;5043448;28;20060;-81
2023/07/09 11:33:03;;;;;;;0.20;0.20;;;30.10;88.40;;;;;;5040733;28;20413;-81
2023/07/09 11:35:44;;;;;;;0.25;0.25;;;30.10;88.50;;;;;;5042709;28;20467;-81
2023/07/09 11:38:24;;;;;;;0.20;0.20;;;30.20;88.10;;;;;;5045082;28;20145;-80
2023/07/09 11:40:55;;;;;;;0.20;0.20;;;30.30;88.40;;;;;;5044992;28;20473;-82
2023/07/09 11:43:35;;;;;;;0.20;0.20;;;30.30;88.00;;;;;;5051517;28;20400;-81
2023/07/09 11:46:18;;;;;;;0.20;0.20;;;30.40;87.90;;;;;;5049583;28;20045;-81
2023/07/09 11:48:45;;;;;;;0.20;0.20;;;30.50;87.60;;;;;;5047693;28;20472;-81
2023/07/09 11:51:45;;;;;;;0.20;0.20;;;30.60;87.50;;;;;;5047863;28;20408;-81
2023/07/09 11:54:13;;;;;;;0.20;0.20;;;30.70;87.30;;;;;;5046725;28;20045;-79
2023/07/09 11:56:39;;;;;;;0.20;0.20;;;30.70;87.50;;;;;;5047964;28;20041;-78
2023/07/09 11:59:05;;;;;;;0.20;0.20;;;30.80;86.50;;;;;;5049129;28;20052;-80
2023/07/09 12:01:54;;;;;;;0.20;0.20;;;30.80;85.90;;;;;;5043451;28;20045;-81
2023/07/09 12:04:27;;;;;;;0.20;0.20;;;30.80;85.80;;;;;;5044627;28;20045;-86
2023/07/09 12:06:59;;;;;;;0.20;0.20;;;30.90;86.20;;;;;;5049411;28;20045;-78
2023/07/09 12:09:31;;;;;;;0.30;0.30;;;31.00;86.40;;;;;;5048981;28;20394;-79
2023/07/09 12:11:57;;;;;;;0.20;0.20;;;31.00;86.50;;;;;;5040446;28;20045;-82
2023/07/09 12:14:24;;;;;;;0.20;0.20;;;31.10;86.70;;;;;;5040393;28;20350;-81
2023/07/09 12:16:53;;;;;;;0.30;0.30;;;31.30;86.70;;;;;;5042515;28;20094;-78
2023/07/09 12:19:21;;;;;;;0.20;0.20;;;31.30;86.00;;;;;;5045051;28;20048;-80
2023/07/09 12:21:57;;;;;;;0.20;0.20;;;31.40;86.30;;;;;;5044555;28;20356;-80
2023/07/09 12:24:25;;;;;;;0.45;0.45;;;31.50;86.40;;;;;;5045659;28;20063;-80
2023/07/09 12:26:59;;;;;;;0.20;0.20;;;31.60;85.90;;;;;;5044600;28;20090;-79
2023/07/09 12:29:26;;;;;;;0.20;0.20;;;31.70;85.30;;;;;;5045344;28;20048;-80
2023/07/09 12:31:51;;;;;;;0.20;0.20;;;31.80;85.10;;;;;;5044381;28;20053;-80
2023/07/09 12:34:17;;;;;;;0.20;0.20;;;31.80;83.60;;;;;;5046844;28;20053;-81
2023/07/09 12:36:48;;;;;;;0.35;0.35;;;31.80;84.20;;;;;;5046062;28;20137;-81
2023/07/09 12:39:17;;;;;;;0.30;0.30;;;31.90;84.30;;;;;;5041894;28;20037;-80
2023/07/09 12:41:44;;;;;;;0.20;0.20;;;31.90;84.50;;;;;;5048922;28;20127;-80
2023/07/09 12:44:21;;;;;;;0.20;0.20;;;32.00;84.30;;;;;;5049430;28;20037;-81
2023/07/09 12:46:49;;;;;;;0.20;0.20;;;32.10;84.30;;;;;;5049725;28;20378;-79
2023/07/09 12:49:39;;;;;;;0.20;0.20;;;32.10;83.80;;;;;;5052280;28;20049;-80
2023/07/09 12:52:21;;;;;;;0.20;0.20;;;32.20;83.80;;;;;;5039239;28;20051;-79
2023/07/09 12:54:58;;;;;;;0.20;0.20;;;32.30;84.20;;;;;;5040517;28;20091;-79
2023/07/09 12:57:24;;;;;;;0.20;0.20;;;32.40;83.50;;;;;;5040434;28;20080;-80
2023/07/09 12:59:50;;;;;;;0.20;0.20;;;32.40;82.90;;;;;;5040366;28;20045;-80